createdAt,value
2022-08-28T00:00:45.227Z,99.90
2022-08-28T00:05:31.310Z,99.90
2022-08-28T00:10:17.352Z,99.90
2022-08-28T00:15:01.080Z,99.90
2022-08-28T00:19:44.971Z,99.90
2022-08-28T00:24:28.534Z,99.90
2022-08-28T00:29:13.975Z,99.90
2022-08-28T00:33:57.408Z,99.90
2022-08-28T00:38:41.106Z,99.90
2022-08-28T00:43:36.331Z,99.90
2022-08-28T00:48:21.465Z,99.90
2022-08-28T00:53:05.190Z,99.90
2022-08-28T00:57:52.332Z,99.90
2022-08-28T01:02:36.130Z,99.90
2022-08-28T01:07:23.401Z,99.90
2022-08-28T01:12:11.953Z,99.90
2022-08-28T01:16:56.615Z,99.90
2022-08-28T01:21:48.325Z,99.90
2022-08-28T01:26:33.290Z,99.90
2022-08-28T01:31:17.861Z,99.90
2022-08-28T01:36:01.396Z,99.90
2022-08-28T01:40:48.337Z,99.90
2022-08-28T01:45:33.293Z,99.90
2022-08-28T01:50:19.536Z,99.90
2022-08-28T01:55:05.110Z,99.90
2022-08-28T01:59:48.829Z,99.90
2022-08-28T02:04:34.251Z,99.90
2022-08-28T02:09:17.867Z,99.90
2022-08-28T02:14:02.575Z,99.90
2022-08-28T02:18:46.234Z,99.90
2022-08-28T02:23:31.163Z,99.90
2022-08-28T02:28:15.966Z,99.90
2022-08-28T02:32:59.531Z,99.90
2022-08-28T02:37:45.427Z,99.90
2022-08-28T02:42:32.618Z,99.90
2022-08-28T02:47:16.732Z,99.90
2022-08-28T02:52:00.377Z,99.90
2022-08-28T02:56:43.903Z,99.90
2022-08-28T03:01:29.265Z,99.90
2022-08-28T03:06:13.894Z,99.90
2022-08-28T03:10:57.469Z,99.90
2022-08-28T03:15:43.801Z,99.90
2022-08-28T03:20:30.502Z,99.90
2022-08-28T03:25:14.378Z,99.90
2022-08-28T03:29:59.231Z,99.90
2022-08-28T03:34:42.941Z,99.90
2022-08-28T03:39:27.872Z,99.90
2022-08-28T03:44:11.421Z,99.90
2022-08-28T03:48:55.933Z,99.90
2022-08-28T03:53:39.947Z,99.90
2022-08-28T03:58:25.315Z,99.90
2022-08-28T04:03:08.924Z,99.90
2022-08-28T04:07:53.560Z,99.90
2022-08-28T04:12:37.443Z,99.90
2022-08-28T04:17:22.377Z,99.90
2022-08-28T04:22:06.375Z,99.90
2022-08-28T04:26:50.988Z,99.90
2022-08-28T04:31:34.905Z,99.90
2022-08-28T04:36:20.492Z,99.90
2022-08-28T04:41:05.839Z,99.90
2022-08-28T04:45:49.302Z,99.90
2022-08-28T04:50:32.849Z,99.90
2022-08-28T04:55:18.315Z,99.90
2022-08-28T05:00:17.615Z,99.90
2022-08-28T05:05:01.235Z,99.90
2022-08-28T05:09:44.821Z,99.90
2022-08-28T05:14:29.971Z,99.90
2022-08-28T05:19:14.298Z,99.90
2022-08-28T05:23:59.350Z,99.90
2022-08-28T05:28:42.914Z,99.90
2022-08-28T05:33:27.952Z,99.90
2022-08-28T05:38:12.708Z,99.90
2022-08-28T05:42:56.378Z,99.90
2022-08-28T05:47:39.793Z,99.90
2022-08-28T05:52:24.891Z,99.90
2022-08-28T05:57:08.339Z,99.90
2022-08-28T06:01:51.989Z,99.90
2022-08-28T06:06:40.487Z,99.90
2022-08-28T06:11:26.251Z,99.90
2022-08-28T06:16:12.836Z,99.90
2022-08-28T06:20:56.962Z,99.90
2022-08-28T06:25:41.454Z,99.90
2022-08-28T06:30:28.828Z,99.90
2022-08-28T06:35:13.713Z,99.90
2022-08-28T06:39:57.403Z,99.90
2022-08-28T06:44:41.054Z,99.90
2022-08-28T06:49:26.564Z,99.90
2022-08-28T06:54:10.893Z,99.90
2022-08-28T06:58:54.909Z,99.90
2022-08-28T07:03:44.247Z,99.90
2022-08-28T07:08:30.785Z,99.90
2022-08-28T07:13:15.030Z,99.90
2022-08-28T07:17:58.566Z,99.90
2022-08-28T07:22:42.571Z,99.90
2022-08-28T07:27:27.820Z,99.90
2022-08-28T07:32:11.486Z,99.90
2022-08-28T07:36:56.497Z,99.90
2022-08-28T07:41:43.013Z,99.90
2022-08-28T07:46:29.402Z,99.90
2022-08-28T07:51:13.065Z,99.90
2022-08-28T07:55:56.904Z,99.90
2022-08-28T08:00:40.480Z,99.90
2022-08-28T08:05:25.935Z,99.90
2022-08-28T08:10:13.767Z,99.90
2022-08-28T08:14:57.495Z,99.90
2022-08-28T08:19:41.325Z,99.90
2022-08-28T08:24:29.102Z,99.90
2022-08-28T08:29:16.085Z,99.90
2022-08-28T08:34:02.507Z,99.90
2022-08-28T08:38:48.422Z,99.90
2022-08-28T08:43:48.612Z,99.90
2022-08-28T08:48:36.457Z,99.90
2022-08-28T08:53:32.887Z,99.90
2022-08-28T08:58:26.115Z,99.90
2022-08-28T09:03:18.182Z,99.90
2022-08-28T09:08:04.859Z,99.90
2022-08-28T09:12:57.012Z,99.90
2022-08-28T09:17:43.201Z,99.90
2022-08-28T09:22:28.552Z,99.90
2022-08-28T09:27:25.940Z,99.90
2022-08-28T09:32:23.858Z,99.90
2022-08-28T09:37:12.391Z,99.90
2022-08-28T09:42:23.342Z,99.90
2022-08-28T09:47:07.246Z,99.90
2022-08-28T09:51:51.394Z,99.90
2022-08-28T09:56:37.832Z,99.90
2022-08-28T10:01:45.247Z,99.90
2022-08-28T10:06:34.972Z,99.90
2022-08-28T10:11:25.708Z,99.90
2022-08-28T10:16:29.129Z,99.90
2022-08-28T10:21:22.786Z,99.90
2022-08-28T10:26:28.379Z,99.90
2022-08-28T10:31:21.524Z,99.90
2022-08-28T10:36:33.488Z,99.90
2022-08-28T10:41:22.981Z,99.90
2022-08-28T10:46:11.975Z,99.90
2022-08-28T10:51:02.992Z,99.90
2022-08-28T10:55:57.360Z,99.90
2022-08-28T11:00:45.286Z,99.90
2022-08-28T11:05:37.165Z,99.90
2022-08-28T11:10:26.832Z,99.90
2022-08-28T11:15:44.275Z,99.90
2022-08-28T11:20:31.152Z,99.90
2022-08-28T11:25:26.184Z,99.90
2022-08-28T11:30:33.773Z,99.90
2022-08-28T11:35:44.430Z,99.90
2022-08-28T11:40:53.923Z,99.90
2022-08-28T11:46:06.850Z,99.90
2022-08-28T11:50:59.158Z,99.90
2022-08-28T11:56:28.332Z,99.90
2022-08-28T12:01:27.309Z,99.90
2022-08-28T12:06:13.688Z,99.90
2022-08-28T12:11:00.249Z,99.90
2022-08-28T12:15:44.781Z,99.90
2022-08-28T12:20:40.359Z,99.90
2022-08-28T12:25:34.724Z,99.90
2022-08-28T12:30:31.007Z,99.90
2022-08-28T12:35:20.966Z,99.90
2022-08-28T12:40:16.734Z,99.90
2022-08-28T12:45:08.560Z,99.90
2022-08-28T12:49:52.768Z,99.90
2022-08-28T12:54:36.498Z,99.90
2022-08-28T12:59:27.820Z,99.90
2022-08-28T13:04:30.287Z,99.90
2022-08-28T13:09:18.933Z,99.90
2022-08-28T13:14:02.832Z,99.90
2022-08-28T13:18:52.629Z,99.90
2022-08-28T13:23:42.523Z,99.90
2022-08-28T13:28:26.602Z,99.30
2022-08-28T13:33:27.623Z,97.90
2022-08-28T13:38:15.589Z,98.60
2022-08-28T13:43:11.108Z,99.00
2022-08-28T13:48:04.020Z,97.90
2022-08-28T13:52:52.446Z,95.90
2022-08-28T13:57:37.099Z,97.50
2022-08-28T14:02:40.334Z,98.70
2022-08-28T14:07:24.684Z,97.40
2022-08-28T14:12:10.605Z,94.80
2022-08-28T14:16:56.806Z,95.20
2022-08-28T14:21:43.227Z,94.20
2022-08-28T14:26:26.887Z,95.60
2022-08-28T14:31:14.840Z,93.70
2022-08-28T14:35:59.386Z,95.00
2022-08-28T14:40:46.650Z,94.50
2022-08-28T14:45:30.599Z,92.80
2022-08-28T14:50:14.776Z,93.80
2022-08-28T14:54:58.897Z,91.80
2022-08-28T14:59:46.223Z,94.60
2022-08-28T15:04:36.202Z,93.30
2022-08-28T15:09:21.900Z,92.10
2022-08-28T15:14:06.688Z,94.20
2022-08-28T15:18:52.199Z,93.20
2022-08-28T15:23:36.542Z,93.00
2022-08-28T15:28:22.042Z,94.20
2022-08-28T15:33:06.863Z,95.50
2022-08-28T15:37:53.808Z,94.80
2022-08-28T15:42:37.548Z,96.20
2022-08-28T15:47:21.292Z,95.60
2022-08-28T15:52:05.989Z,96.90
2022-08-28T15:56:53.883Z,97.20
2022-08-28T16:01:39.772Z,97.70
2022-08-28T16:06:24.746Z,98.40
2022-08-28T16:11:08.590Z,98.20
2022-08-28T16:15:53.597Z,98.50
2022-08-28T16:20:37.997Z,99.00
2022-08-28T16:25:22.785Z,99.20
2022-08-28T16:30:07.670Z,99.00
2022-08-28T16:35:02.922Z,99.90
2022-08-28T16:39:47.280Z,99.90
2022-08-28T16:44:31.072Z,99.60
2022-08-28T16:49:16.530Z,99.90
2022-08-28T16:54:02.484Z,99.90
2022-08-28T16:58:47.333Z,99.90
2022-08-28T17:03:37.195Z,99.90
2022-08-28T17:08:22.341Z,99.90
2022-08-28T17:13:07.901Z,99.90
2022-08-28T17:17:52.836Z,99.90
2022-08-28T17:22:36.798Z,99.90
2022-08-28T17:27:22.746Z,99.90
2022-08-28T17:32:08.869Z,99.90
2022-08-28T17:36:53.382Z,99.90
2022-08-28T17:41:37.554Z,99.90
2022-08-28T17:46:21.815Z,99.90
2022-08-28T17:51:08.937Z,99.90
2022-08-28T17:55:54.396Z,99.90
2022-08-28T18:00:39.224Z,99.90
2022-08-28T18:05:23.882Z,99.90
2022-08-28T18:10:12.779Z,99.90
2022-08-28T18:14:56.940Z,99.90
2022-08-28T18:19:44.530Z,99.90
2022-08-28T18:24:30.502Z,99.90
2022-08-28T18:29:19.730Z,99.90
2022-08-28T18:34:04.898Z,99.90
2022-08-28T18:38:49.572Z,99.90
2022-08-28T18:43:34.238Z,99.90
2022-08-28T18:48:22.614Z,99.90
2022-08-28T18:53:11.625Z,99.90
2022-08-28T18:57:56.413Z,99.90
2022-08-28T19:02:41.911Z,99.90
2022-08-28T19:07:29.622Z,99.90
2022-08-28T19:12:14.417Z,99.90
2022-08-28T19:16:59.088Z,99.90
2022-08-28T19:21:45.129Z,99.90
2022-08-28T19:26:31.305Z,99.90
2022-08-28T19:31:18.367Z,99.90
2022-08-28T19:36:02.981Z,99.90
2022-08-28T19:40:47.764Z,99.90
2022-08-28T19:45:36.069Z,99.90
2022-08-28T19:50:21.348Z,99.90
2022-08-28T19:55:07.796Z,99.90
2022-08-28T19:59:53.246Z,99.90
2022-08-28T20:04:40.219Z,99.90
2022-08-28T20:09:24.724Z,99.90
2022-08-28T20:14:09.317Z,99.90
2022-08-28T20:18:53.941Z,99.90
2022-08-28T20:23:41.722Z,99.90
2022-08-28T20:28:25.666Z,99.90
2022-08-28T20:33:10.047Z,99.90
2022-08-28T20:37:53.817Z,99.90
2022-08-28T20:42:38.970Z,99.90
2022-08-28T20:47:41.266Z,99.90
2022-08-28T20:52:25.685Z,99.90
2022-08-28T20:57:11.096Z,99.90
2022-08-28T21:01:57.714Z,99.90
2022-08-28T21:06:41.774Z,99.90
2022-08-28T21:11:25.796Z,99.90
2022-08-28T21:16:10.397Z,99.90
2022-08-28T21:20:56.459Z,99.90
2022-08-28T21:25:42.427Z,99.90
2022-08-28T21:30:29.791Z,99.90
2022-08-28T21:35:14.968Z,99.90
2022-08-28T21:40:00.961Z,99.90
2022-08-28T21:44:51.372Z,99.90
2022-08-28T21:49:36.374Z,99.90
2022-08-28T21:54:23.252Z,99.90
2022-08-28T21:59:08.163Z,99.90
2022-08-28T22:03:51.950Z,99.90
2022-08-28T22:08:37.176Z,99.90
2022-08-28T22:13:20.984Z,99.90
2022-08-28T22:18:06.174Z,99.90
2022-08-28T22:23:07.317Z,99.90
2022-08-28T22:27:51.563Z,99.90
2022-08-28T22:32:35.367Z,99.90
2022-08-28T22:37:20.437Z,99.90
2022-08-28T22:42:03.971Z,99.90
2022-08-28T22:46:47.485Z,99.90
2022-08-28T22:51:31.055Z,99.90
2022-08-28T22:56:18.259Z,99.90
2022-08-28T23:01:05.493Z,99.90
2022-08-28T23:05:49.060Z,99.90
2022-08-28T23:10:57.424Z,99.90
2022-08-28T23:15:37.783Z,99.90
2022-08-28T23:20:24.883Z,99.90
2022-08-28T23:25:10.542Z,99.90
2022-08-28T23:29:55.884Z,99.90
2022-08-28T23:34:40.759Z,99.90
2022-08-28T23:39:24.614Z,99.90
2022-08-28T23:44:11.280Z,99.90
2022-08-28T23:48:55.035Z,99.90
2022-08-28T23:53:40.185Z,99.90
2022-08-28T23:58:24.021Z,99.90
